METAR Formatted Surface Weather Observation
Issued by NWS

Home | Current Version | Previous Version | Text Only | Print | Product List | Glossary On
Versions: 1 2 3 4
000
SAUS41 KGYX 231734 COR
MTRNKT
SPECI KNKT 231726Z 05015KT 10SM OVC008 18/14 A2999 RMK AO2 T01780139



USA.gov is the U.S. government's official web portal to all federal, state and local government web resources and services.